Time;durP1;ratioP1;P1;durP2;ratioP2;P2;SDS_P1;SDS_P2;PMS_P1;PMS_P2;Temp;Humidity;BMP_temperature;BMP_pressure;BME280_temperature;BME280_humidity;BME280_pressure;Samples;Min_cycle;Max_cycle;Signal;HPM_P1;HPM_P2
2022/09/02 00:08:43;;;;;;;0.52;0.43;;;;;;;18.98;75.09;101703.94;20708855;28;20499;-74
2022/09/02 00:18:45;;;;;;;0.52;0.50;;;;;;;18.77;75.15;101660.66;20702217;28;20465;-74
2022/09/02 00:28:46;;;;;;;0.73;0.52;;;;;;;18.96;75.13;101687.00;20704845;28;20050;-74
2022/09/02 00:38:56;;;;;;;0.65;0.47;;;;;;;18.95;74.79;101678.03;20709246;28;20168;-74
2022/09/02 00:49:12;;;;;;;0.63;0.43;;;;;;;18.95;74.72;101669.94;20708551;28;20060;-75
2022/09/02 00:59:21;;;;;;;1.23;0.43;;;;;;;18.81;74.58;101654.91;20694987;28;20057;-74
2022/09/02 01:09:23;;;;;;;0.55;0.45;;;;;;;18.88;74.27;101660.63;20708967;28;20443;-74
2022/09/02 01:19:31;;;;;;;0.45;0.40;;;;;;;18.92;74.15;101664.78;20716016;28;20297;-74
2022/09/02 01:29:33;;;;;;;0.75;0.40;;;;;;;18.92;74.24;101661.25;20686492;28;20097;-74
2022/09/02 01:39:35;;;;;;;0.65;0.40;;;;;;;18.92;73.99;101645.91;20702058;28;20416;-74
2022/09/02 01:49:38;;;;;;;0.47;0.40;;;;;;;18.91;73.67;101638.78;20709147;28;20129;-74
2022/09/02 01:59:42;;;;;;;0.95;0.57;;;;;;;18.91;73.58;101635.25;20702024;28;20044;-74
2022/09/02 02:09:44;;;;;;;0.88;0.40;;;;;;;18.89;73.57;101624.56;20711916;28;20046;-74
2022/09/02 02:19:49;;;;;;;0.38;0.38;;;;;;;18.62;73.64;101585.41;20708793;28;20049;-74
2022/09/02 02:29:51;;;;;;;1.52;0.50;;;;;;;18.89;73.35;101612.94;20700660;28;20096;-74
2022/09/02 02:39:56;;;;;;;0.73;0.55;;;;;;;18.88;73.20;101620.16;20694749;28;20046;-74
2022/09/02 02:50:00;;;;;;;0.43;0.43;;;;;;;18.88;73.29;101612.06;20700216;28;20054;-74
2022/09/02 03:00:12;;;;;;;1.33;0.55;;;;;;;18.69;73.16;101586.59;20763654;28;20049;-75
2022/09/02 03:10:15;;;;;;;0.73;0.68;;;;;;;18.91;74.64;101600.19;20729673;28;20122;-74
2022/09/02 03:20:18;;;;;;;2.63;0.85;;;;;;;18.88;74.35;101589.66;20756567;28;20061;-75
2022/09/02 03:30:28;;;;;;;3.70;0.82;;;;;;;18.90;74.92;101587.66;20679623;28;20050;-76
2022/09/02 03:40:30;;;;;;;0.60;0.53;;;;;;;18.11;74.54;101458.25;20782801;28;20087;-76
2022/09/02 03:50:36;;;;;;;1.27;0.60;;;;;;;18.92;74.54;101583.00;20819534;28;20112;-76
2022/09/02 04:00:38;;;;;;;1.77;0.50;;;;;;;18.81;74.44;101562.31;20831845;28;20060;-76
2022/09/02 04:10:41;;;;;;;2.60;0.68;;;;;;;18.72;74.66;101546.88;20868268;28;20049;-76
2022/09/02 04:20:43;;;;;;;0.68;0.60;;;;;;;18.58;74.53;101513.81;20850820;28;20049;-76
2022/09/02 04:30:46;;;;;;;0.98;0.68;;;;;;;18.77;74.44;101540.09;20866258;28;20041;-76
2022/09/02 04:40:48;;;;;;;0.73;0.60;;;;;;;18.86;74.47;101553.84;20865852;28;20151;-76
2022/09/02 04:50:52;;;;;;;1.33;0.55;;;;;;;18.84;74.35;101557.53;20862820;28;20053;-76
2022/09/02 05:00:55;;;;;;;0.70;0.60;;;;;;;18.83;74.37;101558.50;20700793;28;20046;-76
2022/09/02 05:10:57;;;;;;;0.60;0.50;;;;;;;18.73;74.38;101544.03;20753789;28;20049;-76
2022/09/02 05:21:03;;;;;;;1.52;0.40;;;;;;;18.68;74.28;101522.84;20797674;28;20107;-77
2022/09/02 05:31:09;;;;;;;0.40;0.40;;;;;;;18.82;74.23;101542.44;20777982;28;20413;-76
2022/09/02 05:41:16;;;;;;;0.85;0.50;;;;;;;18.82;74.24;101553.22;20779809;28;20498;-76
2022/09/02 05:51:18;;;;;;;0.55;0.50;;;;;;;18.81;74.17;101536.19;20772003;28;20437;-76
2022/09/02 06:01:20;;;;;;;0.40;0.40;;;;;;;18.80;74.34;101539.88;20810870;28;20049;-76
2022/09/02 06:11:23;;;;;;;1.75;0.50;;;;;;;18.79;74.08;101546.25;20740120;28;20464;-76
2022/09/02 06:21:25;;;;;;;0.75;0.55;;;;;;;18.80;74.17;101539.88;20802028;28;20269;-76
2022/09/02 06:31:30;;;;;;;0.70;0.50;;;;;;;18.80;74.46;101539.88;20804996;28;20041;-76
2022/09/02 06:41:37;;;;;;;0.50;0.43;;;;;;;18.49;74.36;101492.97;20738534;28;20065;-76
2022/09/02 06:51:45;;;;;;;1.08;0.88;;;;;;;18.80;74.39;101539.00;20733151;28;20072;-76
2022/09/02 07:01:47;;;;;;;;;;;;;;;18.80;74.52;101531.78;20794514;28;20060;-76
2022/09/02 07:11:52;;;;;;;0.90;0.50;;;;;;;18.79;74.64;101531.91;20751908;28;19921;-76
2022/09/02 07:21:54;;;;;;;1.02;0.70;;;;;;;18.78;74.18;101530.19;20773754;28;20081;-74
2022/09/02 07:31:57;;;;;;;1.95;0.60;;;;;;;18.80;74.69;101525.53;20731653;28;20057;-73
2022/09/02 07:41:59;;;;;;;3.20;0.60;;;;;;;18.88;74.99;101520.34;20674347;28;20046;-73
2022/09/02 07:52:01;;;;;;;4.07;0.60;;;;;;;18.93;75.06;101517.28;20681726;28;20462;-73
2022/09/02 08:02:04;;;;;;;2.47;0.90;;;;;;;18.99;75.26;101523.03;20694735;28;20053;-72
2022/09/02 08:12:06;;;;;;;2.75;0.88;;;;;;;19.05;75.07;101504.63;20708315;28;20081;-73
2022/09/02 08:22:08;;;;;;;1.00;0.90;;;;;;;19.09;74.99;101500.69;20665309;28;20050;-74
2022/09/02 08:32:09;;;;;;;1.70;0.73;;;;;;;19.19;74.81;101501.59;20676994;28;20057;-74
2022/09/02 08:42:21;;;;;;;1.45;0.80;;;;;;;19.32;74.31;101495.16;20682167;28;20411;-73
2022/09/02 08:52:35;;;;;;;1.63;0.70;;;;;;;19.41;74.11;101494.34;20764272;28;20045;-74
2022/09/02 09:02:55;;;;;;;1.42;0.63;;;;;;;19.47;73.77;101477.66;20692496;28;20136;-73
2022/09/02 09:13:03;;;;;;;2.38;0.90;;;;;;;19.46;73.66;101453.47;20752192;28;20054;-74
2022/09/02 09:23:29;;;;;;;3.60;0.70;;;;;;;19.55;73.58;101456.25;20682021;28;20128;-73
2022/09/02 09:33:34;;;;;;;0.73;0.40;;;;;;;19.59;73.85;101453.25;20710892;28;20056;-74
2022/09/02 09:43:36;;;;;;;1.35;0.50;;;;;;;19.32;73.56;101392.56;20696853;28;20069;-74
2022/09/02 09:53:38;;;;;;;1.30;0.60;;;;;;;19.58;73.56;101432.66;20666165;28;20042;-73
2022/09/02 10:03:42;;;;;;;1.15;0.60;;;;;;;19.58;73.40;101425.38;20679735;28;20073;-74
2022/09/02 10:13:43;;;;;;;1.17;0.60;;;;;;;19.58;73.52;101421.84;20670166;28;20100;-73
2022/09/02 10:24:00;;;;;;;1.90;0.60;;;;;;;19.58;73.18;101419.97;20671283;28;20060;-73
2022/09/02 10:34:14;;;;;;;0.85;0.55;;;;;;;19.60;73.03;101395.56;20705581;28;20441;-74
2022/09/02 10:44:31;;;;;;;1.05;0.55;;;;;;;19.61;72.74;101386.47;20775744;28;20134;-73
2022/09/02 10:54:42;;;;;;;0.80;0.50;;;;;;;19.61;72.62;101370.25;20717690;28;20417;-73
2022/09/02 11:04:52;;;;;;;1.00;0.55;;;;;;;19.58;72.39;101363.28;20744034;28;20053;-74
2022/09/02 11:15:03;;;;;;;2.83;0.55;;;;;;;19.52;72.07;101348.47;20683531;28;20149;-74
2022/09/02 11:25:13;;;;;;;1.55;0.47;;;;;;;19.64;72.04;101360.03;20699244;28;20052;-75
2022/09/02 11:35:26;;;;;;;2.53;0.60;;;;;;;19.49;72.23;101329.84;20679748;28;20100;-75
2022/09/02 11:45:40;;;;;;;4.63;0.85;;;;;;;19.44;72.57;101310.47;20647429;28;20064;-75
2022/09/02 11:55:55;;;;;;;1.13;0.50;;;;;;;19.62;73.02;101332.28;20692334;28;20650;-74
2022/09/02 12:06:04;;;;;;;1.33;0.60;;;;;;;19.63;73.44;101325.06;20761825;28;20054;-74
2022/09/02 12:16:15;;;;;;;1.50;0.60;;;;;;;19.17;73.51;101247.19;20719280;28;20061;-73
2022/09/02 12:26:37;;;;;;;1.48;0.63;;;;;;;19.65;72.45;101301.47;20658726;28;20045;-73
2022/09/02 12:36:43;;;;;;;1.60;0.63;;;;;;;19.66;72.39;101303.19;20749498;28;20532;-73
2022/09/02 12:46:54;;;;;;;1.83;0.50;;;;;;;19.66;72.22;101292.38;20734955;28;20050;-74
2022/09/02 12:56:57;;;;;;;1.25;0.70;;;;;;;19.68;70.28;101274.19;20686655;28;20049;-74
2022/09/02 13:07:20;;;;;;;1.27;0.57;;;;;;;19.70;69.69;101272.19;20670747;28;20046;-74
2022/09/02 13:40:44;;;;;;;0.75;0.55;;;;;;;19.61;68.50;101243.31;20773635;28;20132;-74
2022/09/02 13:50:49;;;;;;;0.75;0.60;;;;;;;19.71;68.35;101247.75;20771129;28;20538;-74
2022/09/02 14:00:51;;;;;;;1.00;0.67;;;;;;;19.72;67.89;101245.88;20758173;28;20045;-74
2022/09/02 14:10:53;;;;;;;1.77;0.68;;;;;;;19.73;67.50;101228.69;20761964;28;20406;-74
2022/09/02 14:21:17;;;;;;;2.05;0.50;;;;;;;19.73;67.39;101207.09;20749276;28;20054;-75
2022/09/02 14:31:24;;;;;;;0.80;0.60;;;;;;;19.73;67.55;101200.84;20737041;28;20429;-74
2022/09/02 14:41:29;;;;;;;1.35;1.08;;;;;;;19.72;68.57;101189.16;20740178;28;20042;-74
2022/09/02 14:51:37;;;;;;;1.20;0.70;;;;;;;19.52;69.00;101164.84;20751327;28;20405;-74
2022/09/02 15:01:40;;;;;;;1.05;0.60;;;;;;;19.65;69.52;101193.44;20689161;28;20781;-74
2022/09/02 15:11:45;;;;;;;1.38;0.60;;;;;;;19.52;69.41;101170.25;20692821;28;20119;-74
2022/09/02 15:21:47;;;;;;;0.77;0.70;;;;;;;19.56;69.47;101168.97;20684243;28;20542;-74
2022/09/02 15:31:52;;;;;;;0.93;0.60;;;;;;;19.53;69.80;101158.47;20749660;28;20100;-73
2022/09/02 15:41:55;;;;;;;0.73;0.73;;;;;;;19.25;69.57;101112.38;20732382;28;20056;-73
2022/09/02 15:51:57;;;;;;;1.15;0.90;;;;;;;19.49;69.80;101148.94;20755876;28;20068;-74
2022/09/02 16:01:59;;;;;;;0.70;0.60;;;;;;;19.45;69.90;101134.03;20706369;28;20141;-74
2022/09/02 16:12:01;;;;;;;0.90;0.80;;;;;;;19.39;69.60;101127.31;20752339;28;20452;-74
2022/09/02 16:22:03;;;;;;;2.75;1.08;;;;;;;19.41;69.86;101116.38;20755998;28;20041;-74
2022/09/02 16:32:04;;;;;;;4.22;1.20;;;;;;;19.40;70.15;101099.34;20761390;28;20056;-75
2022/09/02 16:42:26;;;;;;;4.68;1.83;;;;;;;19.10;70.45;101047.16;20708030;28;20057;-74
2022/09/02 16:52:28;;;;;;;3.08;1.50;;;;;;;19.38;70.39;101095.06;20754973;28;20063;-74
2022/09/02 17:02:30;;;;;;;4.20;1.60;;;;;;;19.38;70.71;101089.66;20712336;28;20060;-74
2022/09/02 17:12:31;;;;;;;4.13;1.52;;;;;;;19.35;70.37;101088.09;20689448;28;20133;-74
2022/09/02 17:22:33;;;;;;;4.82;2.00;;;;;;;18.87;71.23;101007.94;20696550;28;20065;-74
2022/09/02 17:32:36;;;;;;;8.48;2.30;;;;;;;19.46;71.76;101084.44;20682991;28;20128;-73
2022/09/02 17:42:38;;;;;;;5.78;2.00;;;;;;;19.50;71.28;101088.53;20667807;28;20430;-73
2022/09/02 17:52:39;;;;;;;3.92;1.77;;;;;;;19.53;71.52;101090.97;20691184;28;20077;-73
2022/09/02 18:03:05;;;;;;;5.65;1.65;;;;;;;19.51;71.05;101090.25;20699930;28;20124;-74
2022/09/02 18:13:28;;;;;;;4.10;1.75;;;;;;;19.47;71.18;101083.44;20795436;28;20052;-73
2022/09/02 18:23:49;;;;;;;5.13;2.00;;;;;;;19.43;71.17;101087.38;20700850;28;20060;-73
2022/09/02 18:34:18;;;;;;;3.72;1.50;;;;;;;19.40;71.13;101093.06;20707123;28;20048;-73
2022/09/02 18:44:50;;;;;;;4.18;1.60;;;;;;;19.37;71.22;101109.53;20725005;28;20491;-73
2022/09/02 18:55:16;;;;;;;3.75;1.80;;;;;;;19.35;71.12;101111.53;20804510;28;20049;-73
2022/09/02 19:05:23;;;;;;;3.95;1.20;;;;;;;19.33;71.23;101118.94;20777812;28;20074;-74
2022/09/02 19:15:25;;;;;;;3.83;1.30;;;;;;;19.31;70.99;101126.31;20842411;28;20410;-74
2022/09/02 19:25:28;;;;;;;2.60;1.40;;;;;;;19.29;71.02;101129.16;20855447;28;20057;-73
2022/09/02 19:35:30;;;;;;;2.03;1.13;;;;;;;19.18;71.03;101111.25;20842552;28;20056;-73
2022/09/02 19:45:36;;;;;;;2.72;1.45;;;;;;;19.23;71.09;101113.53;20846245;28;20454;-74
2022/09/02 19:55:37;;;;;;;3.05;1.55;;;;;;;19.25;71.29;101133.16;20851825;28;20049;-73
2022/09/02 20:05:39;;;;;;;3.28;1.40;;;;;;;19.24;71.19;101143.06;20829946;28;20129;-73
2022/09/02 20:15:41;;;;;;;2.88;1.17;;;;;;;19.07;71.35;101108.69;20825450;28;20406;-73
2022/09/02 20:26:13;;;;;;;2.17;1.17;;;;;;;19.22;71.26;101144.19;20831577;28;20056;-74
2022/09/02 20:36:30;;;;;;;1.77;1.30;;;;;;;19.13;71.24;101127.00;20811196;28;20045;-73
2022/09/02 20:46:48;;;;;;;3.40;1.30;;;;;;;19.20;71.41;101149.75;20829072;28;20065;-73
2022/09/02 20:56:49;;;;;;;1.65;1.00;;;;;;;19.09;71.33;101129.13;20699924;28;20553;-74
2022/09/02 21:07:00;;;;;;;1.30;1.10;;;;;;;19.18;71.23;101145.47;20705242;28;20038;-73
2022/09/02 21:17:08;;;;;;;3.05;1.20;;;;;;;19.18;71.50;101146.34;20715766;28;20049;-74
2022/09/02 21:27:15;;;;;;;2.15;1.05;;;;;;;19.17;71.48;101146.44;20816249;28;20103;-73
2022/09/02 21:37:19;;;;;;;1.25;1.00;;;;;;;19.16;71.78;101150.16;20805813;28;20041;-73
2022/09/02 21:47:26;;;;;;;2.03;1.33;;;;;;;19.14;71.40;101144.91;20804179;28;20041;-73
2022/09/02 21:57:42;;;;;;;1.70;1.05;;;;;;;19.15;71.32;101148.44;20810489;28;20064;-73
2022/09/02 22:07:54;;;;;;;3.03;1.33;;;;;;;19.13;71.08;101145.91;20828511;28;20045;-74
2022/09/02 22:18:09;;;;;;;1.70;1.05;;;;;;;18.88;71.19;101088.72;20813773;28;20061;-74
2022/09/02 22:28:12;;;;;;;;;;;;;;;19.11;70.83;101137.94;20788490;28;20045;-73
2022/09/02 22:38:26;;;;;;;3.53;1.00;;;;;;;19.10;70.65;101143.47;20800818;28;20385;-74
2022/09/02 22:59:06;;;;;;;1.98;0.85;;;;;;;19.08;70.43;101124.72;20804994;28;20057;-73
2022/09/02 23:09:09;;;;;;;1.52;0.82;;;;;;;19.08;70.17;101122.00;20809353;28;20509;-74
2022/09/02 23:19:57;;;;;;;1.58;1.00;;;;;;;19.07;70.01;101114.91;20816715;28;20235;-74
2022/09/02 23:30:00;;;;;;;1.90;0.90;;;;;;;19.06;70.09;101118.59;20802345;28;20060;-74
2022/09/02 23:40:10;;;;;;;1.10;0.80;;;;;;;18.96;70.24;101096.97;20707191;28;20046;-74
2022/09/02 23:50:36;;;;;;;1.00;0.90;;;;;;;19.04;69.74;101093.59;20705575;28;20572;-74
